Time;durP1;ratioP1;P1;durP2;ratioP2;P2;SDS_P1;SDS_P2;PMS_P1;PMS_P2;Temp;Humidity;BMP_temperature;BMP_pressure;BME280_temperature;BME280_humidity;BME280_pressure;Samples;Min_cycle;Max_cycle;Signal;HPM_P1;HPM_P2
2023/06/19 00:00:39;;;;;;;17.60;10.13;;;;;;;21.08;67.37;100663.38;5053758;28;20021;-44
2023/06/19 00:03:05;;;;;;;13.15;9.95;;;;;;;21.04;67.34;100665.16;5053546;28;20071;-42
2023/06/19 00:05:30;;;;;;;12.55;9.88;;;;;;;20.99;67.30;100665.25;5053765;28;20025;-43
2023/06/19 00:07:55;;;;;;;12.88;9.35;;;;;;;20.94;67.65;100667.09;5053900;28;20033;-45
2023/06/19 00:10:21;;;;;;;15.95;10.45;;;;;;;20.87;68.25;100673.31;5053186;28;20032;-43
2023/06/19 00:12:46;;;;;;;13.82;10.77;;;;;;;20.78;68.57;100678.69;5052875;28;20036;-42
2023/06/19 00:15:12;;;;;;;16.02;10.68;;;;;;;20.69;69.18;100680.50;5054023;28;20112;-45
2023/06/19 00:17:37;;;;;;;14.60;10.07;;;;;;;20.59;69.54;100678.91;5053188;28;20025;-42
2023/06/19 00:20:05;;;;;;;14.18;10.10;;;;;;;20.59;70.07;100692.00;5053615;28;20037;-46
2023/06/19 00:22:30;;;;;;;14.48;10.98;;;;;;;20.57;70.21;100685.94;5053491;28;20017;-42
2023/06/19 00:24:55;;;;;;;13.82;10.43;;;;;;;20.55;70.59;100685.97;5052908;28;20025;-45
2023/06/19 00:27:21;;;;;;;14.82;10.50;;;;;;;20.48;70.51;100689.56;5053815;28;20405;-45
2023/06/19 00:29:46;;;;;;;14.82;10.48;;;;;;;20.39;70.99;100701.00;5053233;28;20017;-42
2023/06/19 00:32:11;;;;;;;17.10;10.38;;;;;;;20.28;71.62;100702.91;5053158;28;20421;-43
2023/06/19 00:34:37;;;;;;;12.88;10.02;;;;;;;20.21;71.83;100707.34;5053284;28;20039;-45
2023/06/19 00:37:03;;;;;;;14.52;9.80;;;;;;;20.11;72.57;100704.88;5053284;28;20029;-42
2023/06/19 00:39:28;;;;;;;15.32;9.65;;;;;;;20.07;72.65;100704.91;5052448;28;20507;-42
2023/06/19 00:41:55;;;;;;;13.90;9.98;;;;;;;20.00;72.75;100718.97;5053414;28;20116;-44
2023/06/19 00:44:21;;;;;;;15.77;10.38;;;;;;;20.00;73.08;100718.06;5053307;28;20029;-44
2023/06/19 00:46:46;;;;;;;12.32;9.38;;;;;;;19.97;72.98;100713.75;5052494;28;20103;-44
2023/06/19 00:49:14;;;;;;;14.30;9.85;;;;;;;19.88;73.49;100719.09;5053262;28;20473;-42
2023/06/19 00:51:39;;;;;;;;;;;;;;;19.92;71.82;100720.78;5052626;28;20031;-43
2023/06/19 00:54:05;;;;;;;12.38;9.55;;;;;;;19.79;74.04;100719.16;5053047;28;19917;-47
2023/06/19 00:56:32;;;;;;;15.98;9.30;;;;;;;19.76;74.70;100721.81;5053047;28;20032;-48
2023/06/19 00:58:57;;;;;;;13.18;9.32;;;;;;;19.77;75.07;100727.03;5052552;28;20036;-44
2023/06/19 01:01:26;;;;;;;12.00;8.85;;;;;;;19.71;74.99;100727.94;5053115;28;20029;-42
2023/06/19 01:03:51;;;;;;;14.80;9.05;;;;;;;19.70;75.37;100731.47;5053071;28;20091;-44
2023/06/19 01:06:22;;;;;;;12.05;8.45;;;;;;;19.65;75.99;100733.25;5052176;28;20416;-45
2023/06/19 01:09:04;;;;;;;12.85;9.00;;;;;;;19.65;75.95;100733.25;5052849;28;20527;-44
2023/06/19 01:11:39;;;;;;;12.27;8.55;;;;;;;19.61;76.38;100731.53;5052824;28;20033;-45
2023/06/19 01:14:19;;;;;;;15.70;9.30;;;;;;;19.58;76.75;100734.19;5052231;28;20361;-48
2023/06/19 01:16:47;;;;;;;12.20;8.57;;;;;;;19.51;77.79;100736.00;5052828;28;20092;-42
2023/06/19 01:19:23;;;;;;;12.02;9.10;;;;;;;19.47;77.98;100743.88;5052705;28;20030;-44
2023/06/19 01:21:50;;;;;;;14.10;8.57;;;;;;;19.45;78.55;100740.41;5052249;28;20041;-45
2023/06/19 01:24:15;;;;;;;13.63;9.40;;;;;;;19.40;78.89;100748.28;5052556;28;20064;-46
2023/06/19 01:26:41;;;;;;;12.27;8.45;;;;;;;19.36;79.86;100742.22;5052238;28;20056;-48
2023/06/19 01:29:08;;;;;;;12.73;8.07;;;;;;;19.34;80.74;100741.38;5052278;28;20028;-44
2023/06/19 01:31:38;;;;;;;13.07;8.60;;;;;;;19.24;80.94;100743.19;5052293;28;20036;-42
2023/06/19 01:34:06;;;;;;;12.07;7.93;;;;;;;19.22;81.55;100742.34;5052404;28;20369;-42
2023/06/19 01:36:32;;;;;;;16.02;7.85;;;;;;;19.19;82.04;100744.09;5052587;28;20033;-42
2023/06/19 01:38:59;;;;;;;13.32;7.72;;;;;;;19.15;82.58;100752.84;5052717;28;20074;-45
2023/06/19 01:41:25;;;;;;;10.48;7.75;;;;;;;19.11;83.27;100756.34;5051716;28;20025;-47
2023/06/19 01:43:51;;;;;;;15.52;7.75;;;;;;;19.06;83.51;100754.63;5052020;28;20473;-42
2023/06/19 01:46:17;;;;;;;16.70;8.05;;;;;;;19.03;84.31;100754.66;5052398;28;20388;-43
2023/06/19 01:48:42;;;;;;;11.10;7.07;;;;;;;18.96;84.87;100752.97;5051863;28;20469;-44
2023/06/19 01:51:08;;;;;;;11.93;7.63;;;;;;;18.90;85.14;100761.72;5052215;28;20116;-42
2023/06/19 01:53:36;;;;;;;10.32;7.07;;;;;;;18.81;86.29;100764.34;5052358;28;20492;-44
2023/06/19 01:56:02;;;;;;;10.80;6.85;;;;;;;18.74;86.63;100776.56;5051983;28;20025;-45
2023/06/19 01:58:27;;;;;;;11.55;7.38;;;;;;;18.67;87.17;100777.47;5052134;28;20025;-42
2023/06/19 02:00:53;;;;;;;12.73;6.97;;;;;;;18.64;87.88;100772.25;5052326;28;20059;-44
2023/06/19 02:03:18;;;;;;;12.02;7.35;;;;;;;18.61;88.60;100776.66;5051993;28;20492;-45
2023/06/19 02:05:43;;;;;;;12.32;6.97;;;;;;;18.56;89.31;100774.91;5052034;28;20385;-42
2023/06/19 02:08:09;;;;;;;11.00;6.95;;;;;;;18.50;89.89;100779.28;5052201;28;20095;-44
2023/06/19 02:10:34;;;;;;;10.00;6.63;;;;;;;18.48;90.26;100781.06;5051606;28;20021;-43
2023/06/19 02:13:00;;;;;;;10.90;7.00;;;;;;;18.45;90.27;100775.81;5052186;28;20194;-42
2023/06/19 02:15:25;;;;;;;11.10;7.10;;;;;;;18.46;90.87;100782.78;5051823;28;20032;-44
2023/06/19 02:17:54;;;;;;;12.35;7.32;;;;;;;18.48;91.27;100791.50;5051915;28;20036;-46
2023/06/19 02:20:21;;;;;;;11.98;6.90;;;;;;;18.50;91.39;100785.41;5052000;28;20061;-43
2023/06/19 02:22:46;;;;;;;10.30;6.60;;;;;;;18.51;91.82;100781.88;5052103;28;20033;-42
2023/06/19 02:25:11;;;;;;;11.25;5.72;;;;;;;18.52;92.44;100782.78;5051918;28;20032;-43
2023/06/19 02:27:37;;;;;;;10.93;6.22;;;;;;;18.49;92.22;100783.66;5051838;28;20384;-42
2023/06/19 02:30:03;;;;;;;11.35;5.38;;;;;;;18.48;92.96;100796.72;5052189;28;20021;-43
2023/06/19 02:32:28;;;;;;;9.63;6.07;;;;;;;18.46;93.64;100796.69;5051648;28;20021;-42
2023/06/19 02:34:53;;;;;;;10.13;6.13;;;;;;;18.43;94.32;100791.50;5052088;28;20096;-42
2023/06/19 02:37:19;;;;;;;10.05;5.72;;;;;;;18.40;94.09;100794.13;5054832;28;20021;-44
2023/06/19 02:39:44;;;;;;;9.68;6.05;;;;;;;18.34;94.91;100789.78;5055495;28;20071;-45
2023/06/19 02:42:09;;;;;;;9.27;5.88;;;;;;;18.27;95.36;100790.69;5055444;28;20104;-43
2023/06/19 02:44:34;;;;;;;9.52;5.28;;;;;;;18.18;96.29;100785.47;5054779;28;20025;-45
2023/06/19 02:47:00;;;;;;;9.82;5.22;;;;;;;18.11;96.92;100792.47;5055166;28;20043;-42
2023/06/19 02:49:25;;;;;;;11.77;6.03;;;;;;;18.07;97.26;100791.59;5055374;28;20048;-45
2023/06/19 02:51:50;;;;;;;9.45;5.50;;;;;;;18.05;98.19;100788.13;5055052;28;20044;-42
2023/06/19 02:54:16;;;;;;;11.93;6.40;;;;;;;18.00;98.71;100784.69;5055326;28;20017;-46
2023/06/19 02:56:41;;;;;;;11.85;6.55;;;;;;;17.97;99.17;100783.81;5055119;28;20031;-44
2023/06/19 02:59:06;;;;;;;9.90;6.38;;;;;;;17.89;99.76;100791.59;5054777;28;20017;-42
2023/06/19 03:01:32;;;;;;;12.57;6.78;;;;;;;17.88;100.00;100805.50;5054969;28;20384;-45
2023/06/19 03:03:57;;;;;;;11.35;5.82;;;;;;;17.84;100.00;100794.22;5055117;28;20017;-44
2023/06/19 03:06:22;;;;;;;11.98;6.47;;;;;;;17.83;100.00;100802.94;5054377;28;20029;-42
2023/06/19 03:08:48;;;;;;;10.82;6.45;;;;;;;17.78;100.00;100805.53;5054931;28;20489;-46
2023/06/19 03:11:13;;;;;;;10.73;6.90;;;;;;;17.78;100.00;100809.88;5054997;28;20542;-47
2023/06/19 03:13:50;;;;;;;13.02;6.80;;;;;;;17.73;100.00;100809.00;5054230;28;20035;-46
2023/06/19 03:16:16;;;;;;;11.63;7.00;;;;;;;17.73;100.00;100817.69;5055020;28;20025;-46
2023/06/19 03:18:45;;;;;;;14.10;7.40;;;;;;;17.66;100.00;100809.88;5054804;28;20414;-44
2023/06/19 03:21:11;;;;;;;10.43;6.90;;;;;;;17.66;100.00;100815.09;5054122;28;20381;-42
2023/06/19 03:23:36;;;;;;;14.45;7.00;;;;;;;17.64;100.00;100804.66;5054487;28;20028;-44
2023/06/19 03:26:02;;;;;;;13.65;8.20;;;;;;;17.64;100.00;100812.50;5054857;28;20021;-43
2023/06/19 03:28:27;;;;;;;12.23;7.75;;;;;;;17.62;100.00;100803.78;5053869;28;20092;-44
2023/06/19 03:30:53;;;;;;;13.57;7.95;;;;;;;17.59;100.00;100814.22;5054769;28;20028;-43
2023/06/19 03:33:18;;;;;;;16.67;7.85;;;;;;;17.56;100.00;100819.44;5054790;28;20465;-44
2023/06/19 03:35:43;;;;;;;15.82;8.75;;;;;;;17.52;100.00;100828.09;5053936;28;20550;-43
2023/06/19 03:38:09;;;;;;;18.50;8.70;;;;;;;17.51;100.00;100823.78;5054592;28;20029;-42
2023/06/19 03:40:34;;;;;;;15.25;8.93;;;;;;;17.48;100.00;100827.25;5053742;28;20104;-42
2023/06/19 03:43:00;;;;;;;15.32;8.57;;;;;;;17.46;100.00;100828.13;5054427;28;20068;-46
2023/06/19 03:45:25;;;;;;;18.38;8.52;;;;;;;17.45;100.00;100840.28;5054341;28;20032;-46
2023/06/19 03:47:51;;;;;;;19.73;9.68;;;;;;;17.46;100.00;100844.63;5053558;28;20108;-42
2023/06/19 03:50:16;;;;;;;19.42;9.85;;;;;;;17.50;100.00;100848.97;5054326;28;20112;-44
2023/06/19 03:52:41;;;;;;;20.23;9.50;;;;;;;17.56;100.00;100850.72;5054063;28;20556;-41
2023/06/19 03:55:07;;;;;;;20.05;9.98;;;;;;;17.61;100.00;100851.56;5053688;28;20526;-45
2023/06/19 03:57:32;;;;;;;24.60;10.00;;;;;;;17.66;100.00;100851.56;5053776;28;20021;-44
2023/06/19 03:59:57;;;;;;;23.77;10.23;;;;;;;17.70;100.00;100856.81;5054070;28;20079;-46
2023/06/19 04:02:23;;;;;;;20.65;10.88;;;;;;;17.75;100.00;100856.78;5053468;28;20083;-44
2023/06/19 04:04:48;;;;;;;20.85;11.02;;;;;;;17.75;100.00;100860.28;5053972;28;20021;-49
2023/06/19 04:07:13;;;;;;;23.25;11.48;;;;;;;17.77;100.00;100861.13;5054133;28;20067;-46
2023/06/19 04:09:39;;;;;;;19.63;10.20;;;;;;;17.81;100.00;100866.38;5053250;28;20032;-48
2023/06/19 04:12:05;;;;;;;24.13;11.25;;;;;;;17.84;100.00;100866.34;5053677;28;20526;-45
2023/06/19 04:14:30;;;;;;;20.55;10.68;;;;;;;17.86;100.00;100867.22;5053768;28;20135;-47
2023/06/19 04:16:55;;;;;;;18.75;10.25;;;;;;;17.85;100.00;100866.34;5053145;28;20037;-44
2023/06/19 04:19:20;;;;;;;22.20;10.95;;;;;;;17.88;100.00;100878.50;5053723;28;20021;-46
2023/06/19 04:21:46;;;;;;;23.00;11.80;;;;;;;17.90;100.00;100877.63;5053508;28;20053;-46
2023/06/19 04:24:11;;;;;;;22.35;11.85;;;;;;;17.89;100.00;100885.47;5053192;28;20094;-46
2023/06/19 04:26:36;;;;;;;19.75;11.15;;;;;;;17.90;100.00;100884.59;5053003;28;20024;-47
2023/06/19 04:29:02;;;;;;;21.10;11.57;;;;;;;17.89;100.00;100885.47;5053562;28;20087;-43
2023/06/19 04:31:28;;;;;;;19.08;11.15;;;;;;;17.88;100.00;100891.53;5053035;28;20534;-45
2023/06/19 04:33:56;;;;;;;18.20;11.18;;;;;;;17.90;100.00;100892.44;5053455;28;20025;-46
2023/06/19 04:36:21;;;;;;;18.02;10.73;;;;;;;17.90;100.00;100900.25;5053565;28;20039;-44
2023/06/19 04:38:47;;;;;;;19.08;10.50;;;;;;;17.87;100.00;100900.22;5052653;28;20025;-45
2023/06/19 04:41:12;;;;;;;19.95;10.57;;;;;;;17.90;100.00;100897.66;5053081;28;20029;-46
2023/06/19 04:43:41;;;;;;;21.00;11.77;;;;;;;17.90;100.00;100902.84;5052872;28;20021;-48
2023/06/19 04:46:06;;;;;;;18.38;10.43;;;;;;;17.92;100.00;100898.50;5053102;28;20032;-45
2023/06/19 04:48:32;;;;;;;16.05;10.02;;;;;;;17.96;100.00;100905.50;5052898;28;20025;-46
2023/06/19 04:51:00;;;;;;;21.33;10.35;;;;;;;17.98;100.00;100911.56;5052810;28;20120;-48
2023/06/19 04:53:26;;;;;;;17.08;9.32;;;;;;;18.01;100.00;100915.91;5052704;28;20032;-44
2023/06/19 04:55:54;;;;;;;15.82;9.32;;;;;;;18.02;100.00;100915.91;5053058;28;20025;-45
2023/06/19 04:58:20;;;;;;;14.50;9.27;;;;;;;18.05;100.00;100908.09;5052250;28;20021;-49
2023/06/19 05:00:50;;;;;;;15.13;8.93;;;;;;;18.09;100.00;100912.44;5052596;28;20025;-48
2023/06/19 05:03:17;;;;;;;13.60;7.85;;;;;;;18.13;100.00;100907.22;5053201;28;20495;-44
2023/06/19 05:05:43;;;;;;;12.90;8.85;;;;;;;18.16;100.00;100910.69;5052162;28;20477;-44
2023/06/19 05:08:08;;;;;;;13.15;8.60;;;;;;;18.18;100.00;100913.28;5052633;28;20078;-45
2023/06/19 05:10:34;;;;;;;12.77;8.57;;;;;;;18.22;100.00;100910.69;5052628;28;20063;-45
2023/06/19 05:12:59;;;;;;;13.38;9.15;;;;;;;18.26;100.00;100922.00;5052242;28;20108;-44
2023/06/19 05:15:24;;;;;;;15.73;8.38;;;;;;;18.28;100.00;100912.41;5052596;28;20029;-46
2023/06/19 05:17:49;;;;;;;15.98;8.90;;;;;;;18.33;100.00;100925.47;5052963;28;20059;-46
2023/06/19 05:20:15;;;;;;;10.57;8.13;;;;;;;18.39;100.00;100915.03;5052200;28;20041;-45
2023/06/19 05:22:40;;;;;;;10.50;7.55;;;;;;;18.40;100.00;100920.25;5052409;28;20029;-44
2023/06/19 05:25:06;;;;;;;11.43;8.45;;;;;;;18.42;100.00;100923.72;5052737;28;20021;-45
2023/06/19 05:27:32;;;;;;;14.50;7.60;;;;;;;18.42;100.00;100928.94;5051990;28;20033;-44
2023/06/19 05:29:57;;;;;;;11.95;8.15;;;;;;;18.50;100.00;100930.66;5052457;28;20025;-44
2023/06/19 05:32:22;;;;;;;12.68;8.13;;;;;;;18.54;100.00;100935.00;5052523;28;20028;-44
2023/06/19 05:34:47;;;;;;;9.57;7.60;;;;;;;18.56;100.00;100941.94;5052028;28;20032;-45
2023/06/19 05:37:12;;;;;;;9.50;7.57;;;;;;;18.55;100.00;100937.63;5052435;28;20075;-45
2023/06/19 05:39:38;;;;;;;11.25;8.27;;;;;;;18.56;100.00;100930.66;5052180;28;20021;-48
2023/06/19 05:42:03;;;;;;;12.60;7.82;;;;;;;18.60;100.00;100942.81;5052326;28;20067;-45
2023/06/19 05:44:29;;;;;;;10.85;7.50;;;;;;;18.67;100.00;100939.34;5052307;28;20104;-45
2023/06/19 05:46:54;;;;;;;10.50;7.38;;;;;;;18.66;100.00;100948.03;5052674;28;20071;-49
2023/06/19 05:49:19;;;;;;;10.30;7.28;;;;;;;18.75;100.00;100947.16;5051758;28;20017;-49
2023/06/19 05:51:45;;;;;;;9.38;7.15;;;;;;;18.84;100.00;100952.34;5052280;28;20029;-45
2023/06/19 05:54:10;;;;;;;9.27;6.63;;;;;;;18.97;100.00;100958.41;5051883;28;20052;-46
2023/06/19 05:56:36;;;;;;;11.13;7.35;;;;;;;19.08;100.00;100947.91;5052130;28;20111;-45
2023/06/19 05:59:02;;;;;;;10.82;7.45;;;;;;;19.08;100.00;100955.75;5052567;28;20465;-46
2023/06/19 06:01:28;;;;;;;13.45;6.97;;;;;;;19.15;100.00;100946.19;5051748;28;20025;-44
2023/06/19 06:03:54;;;;;;;10.32;6.95;;;;;;;19.19;100.00;100948.75;5052073;28;20095;-46
2023/06/19 06:06:19;;;;;;;9.30;7.25;;;;;;;19.25;100.00;100955.72;5052259;28;20033;-46
2023/06/19 06:08:45;;;;;;;10.68;7.22;;;;;;;19.30;100.00;100951.34;5051524;28;20362;-45
2023/06/19 06:11:10;;;;;;;9.90;7.05;;;;;;;19.30;100.00;100953.06;5053575;28;20025;-46
2023/06/19 06:13:35;;;;;;;9.20;7.55;;;;;;;19.23;100.00;100966.16;5056077;28;20522;-45
2023/06/19 06:16:01;;;;;;;18.88;8.35;;;;;;;19.27;100.00;100967.00;5055720;28;20021;-46
2023/06/19 06:18:26;;;;;;;11.57;8.02;;;;;;;19.35;100.00;100978.31;5055646;28;20104;-47
2023/06/19 06:20:51;;;;;;;8.82;7.50;;;;;;;19.34;99.08;100978.28;5055963;28;20128;-48
2023/06/19 06:23:16;;;;;;;9.40;7.18;;;;;;;19.34;99.05;100984.41;5055564;28;20477;-44
2023/06/19 06:25:42;;;;;;;10.50;8.30;;;;;;;19.30;97.33;100987.91;5055380;28;20044;-44
2023/06/19 06:28:07;;;;;;;10.60;7.88;;;;;;;19.41;97.89;100986.09;5056042;28;20032;-45
2023/06/19 06:30:33;;;;;;;10.18;9.02;;;;;;;19.40;94.58;100994.81;5055255;28;20029;-47
2023/06/19 06:32:58;;;;;;;12.07;9.00;;;;;;;19.48;94.11;100993.91;5055575;28;20021;-45
2023/06/19 06:35:23;;;;;;;9.65;8.32;;;;;;;19.50;92.86;101000.88;5055659;28;20017;-45
2023/06/19 06:37:49;;;;;;;10.63;9.30;;;;;;;19.51;92.20;100993.88;5055114;28;20029;-44
2023/06/19 06:40:15;;;;;;;12.15;9.98;;;;;;;19.47;91.25;101000.91;5055479;28;20020;-45
2023/06/19 06:42:40;;;;;;;11.25;9.30;;;;;;;19.57;91.47;101012.16;5055598;28;20108;-44
2023/06/19 06:45:06;;;;;;;10.40;8.98;;;;;;;19.77;91.69;101019.03;5055253;28;20112;-44
2023/06/19 06:47:32;;;;;;;11.07;9.23;;;;;;;19.88;90.67;101017.25;5055079;28;20027;-45
2023/06/19 06:49:57;;;;;;;11.88;8.95;;;;;;;20.06;89.99;101014.53;5055438;28;20103;-47
2023/06/19 06:52:23;;;;;;;14.02;11.13;;;;;;;20.00;87.97;101021.53;5054477;28;20032;-44
2023/06/19 06:54:49;;;;;;;12.48;9.65;;;;;;;19.99;87.67;101025.06;5055399;28;20083;-45
2023/06/19 06:57:14;;;;;;;14.18;10.15;;;;;;;20.17;87.60;101027.53;5055499;28;20029;-44
2023/06/19 06:59:40;;;;;;;12.13;10.15;;;;;;;20.26;86.71;101034.44;5054526;28;20440;-48
2023/06/19 07:02:05;;;;;;;13.30;10.00;;;;;;;20.31;85.59;101030.03;5055503;28;20044;-48
2023/06/19 07:04:31;;;;;;;13.25;10.18;;;;;;;20.29;83.88;101031.78;5054411;28;20028;-49
2023/06/19 07:06:58;;;;;;;11.00;9.73;;;;;;;20.30;83.89;101033.53;5054944;28;20113;-45
2023/06/19 07:09:23;;;;;;;12.60;9.45;;;;;;;20.25;84.12;101032.69;5055046;28;20032;-44
2023/06/19 07:11:49;;;;;;;13.50;10.25;;;;;;;20.24;85.39;101030.97;5054787;28;20025;-44
2023/06/19 07:14:17;;;;;;;12.02;10.45;;;;;;;20.41;85.57;101038.66;5055037;28;20052;-44
2023/06/19 07:16:43;;;;;;;12.85;10.77;;;;;;;20.35;84.08;101042.22;5054789;28;20036;-44
2023/06/19 07:19:09;;;;;;;14.23;10.50;;;;;;;20.34;83.84;101045.72;5054616;28;20052;-44
2023/06/19 07:21:34;;;;;;;12.30;10.75;;;;;;;20.38;83.16;101050.03;5053632;28;20072;-44
2023/06/19 07:24:00;;;;;;;13.50;12.13;;;;;;;20.43;83.00;101057.00;5055065;28;20114;-44
2023/06/19 07:26:25;;;;;;;13.45;11.52;;;;;;;20.39;83.03;101059.63;5053756;28;20473;-44
2023/06/19 07:28:50;;;;;;;13.02;10.82;;;;;;;20.61;84.19;101056.84;5054724;28;20469;-44
2023/06/19 07:31:16;;;;;;;12.90;11.40;;;;;;;20.54;82.38;101061.28;5054801;28;20111;-46
2023/06/19 07:33:41;;;;;;;12.48;11.18;;;;;;;20.74;82.55;101062.03;5053842;28;20354;-44
2023/06/19 07:36:06;;;;;;;12.02;10.82;;;;;;;20.75;81.51;101071.59;5054109;28;20028;-45
2023/06/19 07:38:32;;;;;;;17.95;12.05;;;;;;;20.80;79.79;101075.03;5054215;28;20048;-45
2023/06/19 07:40:58;;;;;;;14.65;10.60;;;;;;;20.76;79.92;101075.94;5053963;28;20075;-43
2023/06/19 07:43:23;;;;;;;12.70;11.27;;;;;;;20.74;80.02;101069.88;5054080;28;20025;-45
2023/06/19 07:45:49;;;;;;;11.68;10.48;;;;;;;20.81;81.28;101071.53;5054613;28;20052;-44
2023/06/19 07:48:15;;;;;;;10.98;9.85;;;;;;;20.95;80.41;101076.66;5053794;28;20469;-44
2023/06/19 07:50:40;;;;;;;11.10;9.65;;;;;;;20.98;78.29;101073.97;5053723;28;20025;-44
2023/06/19 07:53:05;;;;;;;13.45;10.10;;;;;;;21.03;77.93;101067.84;5054251;28;20031;-42
2023/06/19 07:55:31;;;;;;;10.52;9.10;;;;;;;21.16;77.68;101076.44;5053421;28;20036;-44
2023/06/19 07:57:59;;;;;;;11.90;10.32;;;;;;;21.20;77.38;101069.38;5054237;28;20099;-44
2023/06/19 08:00:24;;;;;;;11.15;10.05;;;;;;;21.40;76.34;101077.03;5054152;28;20095;-44
2023/06/19 08:02:50;;;;;;;12.93;10.18;;;;;;;21.48;75.98;101074.31;5053458;28;20422;-46
2023/06/19 08:05:15;;;;;;;12.82;9.95;;;;;;;21.54;76.57;101076.88;5054146;28;20054;-44
2023/06/19 08:07:41;;;;;;;9.90;8.90;;;;;;;21.54;75.65;101071.63;5053377;28;20075;-44
2023/06/19 08:10:07;;;;;;;11.38;8.98;;;;;;;21.58;76.38;101083.00;5053731;28;20024;-45
2023/06/19 08:12:32;;;;;;;10.48;8.68;;;;;;;21.79;75.46;101072.19;5053669;28;20082;-43
2023/06/19 08:14:58;;;;;;;12.60;9.75;;;;;;;21.67;73.22;101078.47;5053506;28;20031;-47
2023/06/19 08:17:23;;;;;;;13.15;10.05;;;;;;;21.75;73.36;101074.91;5053489;28;20028;-48
2023/06/19 08:19:49;;;;;;;13.13;9.98;;;;;;;21.80;74.06;101078.31;5053527;28;20028;-43
2023/06/19 08:22:15;;;;;;;11.82;9.70;;;;;;;21.77;73.87;101091.47;5053276;28;20491;-45
2023/06/19 08:24:40;;;;;;;10.80;9.02;;;;;;;21.91;73.75;101086.03;5053391;28;20028;-46
2023/06/19 08:27:06;;;;;;;12.90;9.20;;;;;;;21.94;71.53;101084.25;5053725;28;20102;-46
2023/06/19 08:29:31;;;;;;;11.32;8.13;;;;;;;22.32;73.07;101077.56;5053010;28;20032;-45
2023/06/19 08:31:58;;;;;;;11.50;9.27;;;;;;;22.34;69.68;101074.91;5053426;28;20132;-45
2023/06/19 08:34:23;;;;;;;9.98;8.40;;;;;;;22.43;70.39;101068.69;5052301;28;20112;-44
2023/06/19 08:36:49;;;;;;;13.55;8.88;;;;;;;22.30;69.78;101068.84;5053030;28;20033;-42
2023/06/19 08:39:14;;;;;;;11.65;8.18;;;;;;;22.56;69.74;101085.97;5053438;28;20445;-43
2023/06/19 08:41:41;;;;;;;9.60;8.50;;;;;;;22.69;70.14;101091.88;5053375;28;20033;-43
2023/06/19 08:44:07;;;;;;;16.13;8.32;;;;;;;22.79;69.29;101095.25;5052926;28;20021;-44
2023/06/19 08:46:34;;;;;;;13.65;9.30;;;;;;;22.78;67.48;101106.63;5052867;28;20025;-45
2023/06/19 08:49:00;;;;;;;13.40;8.85;;;;;;;22.74;67.78;101112.84;5053220;28;20032;-44
2023/06/19 08:51:28;;;;;;;12.30;8.75;;;;;;;22.62;66.90;101112.16;5052332;28;20415;-44
2023/06/19 08:54:04;;;;;;;12.40;8.40;;;;;;;22.59;68.40;101111.31;5053149;28;20033;-46
2023/06/19 08:56:33;;;;;;;14.88;9.60;;;;;;;22.52;67.95;101114.03;5052776;28;20502;-47
2023/06/19 08:59:11;;;;;;;12.68;9.50;;;;;;;22.18;68.48;101117.16;5052334;28;20535;-46
2023/06/19 09:01:37;;;;;;;13.43;9.20;;;;;;;22.15;68.23;101124.22;5052694;28;20542;-44
2023/06/19 09:04:10;;;;;;;10.05;8.60;;;;;;;22.34;68.02;101128.28;5052729;28;20099;-43
2023/06/19 09:06:47;;;;;;;11.70;9.02;;;;;;;22.37;68.10;101132.66;5052521;28;20032;-43
2023/06/19 09:09:13;;;;;;;19.27;9.93;;;;;;;22.42;67.18;101137.84;5053112;28;20476;-43
2023/06/19 09:11:43;;;;;;;12.48;9.50;;;;;;;22.59;67.15;101135.81;5052285;28;20021;-46
2023/06/19 09:14:09;;;;;;;13.43;9.65;;;;;;;22.69;67.14;101129.53;5052625;28;20099;-47
2023/06/19 09:16:39;;;;;;;14.73;10.00;;;;;;;22.63;66.50;101140.16;5052841;28;20029;-43
2023/06/19 09:19:05;;;;;;;13.10;9.75;;;;;;;22.83;64.99;101133.69;5052443;28;20413;-45
2023/06/19 09:21:30;;;;;;;14.52;8.63;;;;;;;23.06;65.92;101137.69;5052133;28;20124;-44
2023/06/19 09:24:02;;;;;;;13.40;8.18;;;;;;;22.97;65.59;101139.59;5052830;28;20477;-45
2023/06/19 09:26:27;;;;;;;11.63;9.45;;;;;;;23.24;64.30;101142.66;5051923;28;20130;-45
2023/06/19 09:28:53;;;;;;;12.13;7.88;;;;;;;23.39;65.06;101148.50;5052387;28;20803;-44
2023/06/19 09:31:18;;;;;;;12.48;8.05;;;;;;;23.42;64.08;101143.19;5052911;28;20017;-45
2023/06/19 09:33:43;;;;;;;12.63;7.45;;;;;;;23.52;63.14;101157.88;5051970;28;20040;-43
2023/06/19 09:36:08;;;;;;;9.48;7.43;;;;;;;23.45;62.80;101141.38;5052550;28;20021;-44
2023/06/19 09:38:39;;;;;;;12.20;7.45;;;;;;;23.61;63.54;101144.53;5052365;28;20029;-46
2023/06/19 09:41:06;;;;;;;15.48;8.35;;;;;;;23.82;61.92;101155.53;5051791;28;20381;-47
2023/06/19 09:43:38;;;;;;;13.02;7.97;;;;;;;23.85;61.20;101150.22;5052278;28;20017;-44
2023/06/19 09:46:05;;;;;;;10.63;7.65;;;;;;;23.93;60.59;101148.31;5055813;28;20033;-45
2023/06/19 09:48:34;;;;;;;12.98;8.55;;;;;;;23.95;59.27;101151.78;5055490;28;20475;-45
2023/06/19 09:51:09;;;;;;;13.23;8.27;;;;;;;23.82;57.92;101150.28;5056734;28;20071;-46
2023/06/19 09:53:36;;;;;;;11.82;7.32;;;;;;;24.19;57.66;101154.78;5055815;28;20029;-44
2023/06/19 09:56:01;;;;;;;11.18;7.68;;;;;;;24.48;58.01;101161.16;5056516;28;20031;-45
2023/06/19 09:58:28;;;;;;;11.05;7.85;;;;;;;24.55;58.12;101160.09;5056501;28;20131;-48
2023/06/19 10:00:55;;;;;;;12.13;7.70;;;;;;;24.68;57.12;101159.84;5056053;28;20104;-44
2023/06/19 10:03:20;;;;;;;11.75;8.10;;;;;;;24.62;54.94;101174.00;5056360;28;20371;-44
2023/06/19 10:05:46;;;;;;;11.57;7.60;;;;;;;24.42;55.92;101167.44;5056149;28;20100;-44
2023/06/19 10:08:12;;;;;;;10.73;8.80;;;;;;;24.08;55.79;101168.19;5055794;28;20025;-44
2023/06/19 10:10:47;;;;;;;11.60;8.18;;;;;;;24.00;57.66;101170.09;5055767;28;20086;-45
2023/06/19 10:13:14;;;;;;;10.70;8.35;;;;;;;23.94;56.91;101168.47;5056395;28;20028;-44
2023/06/19 10:15:44;;;;;;;12.02;8.63;;;;;;;24.45;57.33;101171.75;5055707;28;20086;-46
2023/06/19 10:18:16;;;;;;;11.35;8.10;;;;;;;24.84;55.52;101170.88;5056032;28;20051;-43
2023/06/19 10:20:41;;;;;;;10.85;7.90;;;;;;;26.09;51.86;101167.50;5055730;28;20041;-45
2023/06/19 10:23:13;;;;;;;12.05;8.13;;;;;;;26.37;50.16;101174.59;5055308;28;20040;-46
2023/06/19 10:25:40;;;;;;;11.20;7.68;;;;;;;27.24;46.79;101173.50;5055902;28;20070;-43
2023/06/19 10:28:23;;;;;;;;;;;;;;;27.22;47.64;101167.38;5056474;28;20033;-47
2023/06/19 10:31:05;;;;;;;9.73;7.28;;;;;;;26.75;46.61;101173.41;5055718;28;19919;-44
2023/06/19 10:33:42;;;;;;;10.57;7.53;;;;;;;26.94;46.14;101172.78;5055732;28;20645;-43
2023/06/19 10:36:14;;;;;;;15.23;7.95;;;;;;;27.09;44.50;101171.41;5055514;28;20025;-44
2023/06/19 10:38:40;;;;;;;11.77;6.57;;;;;;;27.56;44.87;101176.78;5055265;28;20075;-43
2023/06/19 10:41:05;;;;;;;9.40;6.57;;;;;;;27.73;42.73;101173.53;5055792;28;20021;-43
2023/06/19 10:43:32;;;;;;;8.40;7.00;;;;;;;27.82;42.76;101169.66;5054904;28;20437;-47
2023/06/19 10:45:58;;;;;;;14.85;7.70;;;;;;;27.89;43.84;101171.16;5055341;28;20782;-46
2023/06/19 10:48:24;;;;;;;11.35;7.93;;;;;;;27.73;42.42;101177.97;5055181;28;20419;-45
2023/06/19 10:50:51;;;;;;;12.00;7.50;;;;;;;27.77;42.18;101176.91;5055291;28;20017;-43
2023/06/19 10:53:26;;;;;;;11.00;7.40;;;;;;;27.63;42.39;101171.28;5055394;28;20098;-46
2023/06/19 10:55:59;;;;;;;11.25;7.25;;;;;;;27.11;43.61;101174.84;5055126;28;20698;-46
2023/06/19 10:58:25;;;;;;;11.43;7.20;;;;;;;26.51;43.29;101169.72;5053872;28;20028;-44
2023/06/19 11:00:51;;;;;;;10.45;6.80;;;;;;;26.63;44.57;101165.81;5055282;28;20028;-44
2023/06/19 11:03:16;;;;;;;12.23;7.20;;;;;;;26.76;46.46;101167.16;5055277;28;20029;-44
2023/06/19 11:05:45;;;;;;;11.23;7.25;;;;;;;26.68;45.17;101165.69;5054402;28;20483;-45
2023/06/19 11:08:16;;;;;;;12.25;7.63;;;;;;;26.15;45.38;101164.69;5055143;28;20465;-45
2023/06/19 11:10:42;;;;;;;14.48;7.38;;;;;;;26.34;45.99;101161.47;5054281;28;20057;-45